Terminal Aerodrome Forecast
Issued by NWS Charleston, WV

Current Version | Previous Version | Graphics & Text | Print | Product List | Glossary On
Versions: 1 2 3 4 5 6 7 8 9 10 11 12 13 14 15 16 17 18 19 20 21 22 23
041
FTUS41 KRLX 240546 AAB
TAFCRW
TAF AMD
KCRW 240546Z 2406/2506 07004KT P6SM OVC080
     FM240900 06004KT P6SM OVC040
      TEMPO 2409/2413 4SM -RA OVC025
     FM241300 07005KT P6SM OVC025
      TEMPO 2413/2415 4SM RA OVC012
     FM241700 07006KT P6SM OVC035=

USA.gov is the U.S. government's official web portal to all federal, state and local government web resources and services.